Tin City LRRS, AK

1:48 PM AKDT on April 29, 2017 (GMT -0800)
Tin City | | Change Station

Elev 269 ft 65.56 °N, 167.92 °W | Updated 53 minutes ago

Mostly Cloudy
Mostly Cloudy
33 °F
Feels Like 22 °F
N
16
Wind Variable Wind from NNE

Today
High -- | Low -- °F
--% Chance of Precip.
Yesterday
High -- | Low -- °F
Precip. -- in
Pressure 29.91 in
Visibility 10.0 miles
Clouds Scattered Clouds 100 ft
Mostly Cloudy 9000 ft
Windchill 22 °F
Dew Point 32 °F
Humidity 96%
Rainfall 0.00 in
Snow Depth Not available.
6:38 AM 11:42 PM
Waxing Crescent, 16% visible
METAR PATC 292055Z AUTO 03014KT 10SM SCT001 BKN090 00/00 A2990 RMK AO2 SLP129 T00041001 57007
Pressure 29.91 in
Visibility 10.0 miles
Clouds Scattered Clouds 100 ft
Mostly Cloudy 9000 ft
Windchill 22 °F
Dew Point 32 °F
Humidity 96%
Rainfall 0.00 in
Snow Depth Not available.
6:38 AM 11:42 PM
Waxing Crescent, 16% visible
METAR PATC 292055Z AUTO 03014KT 10SM SCT001 BKN090 00/00 A2990 RMK AO2 SLP129 T00041001 57007

Get Severe Weather Alerts

Thanks for signing up!

Be on the lookout for a verification email in your inbox.

You'll start receiving the daily forecast at 8 AM.

×

10-Day Weather Forecast

Almanac

Astronomy

Apr. 29, 2017 Rise Set
Actual Time
Civil Twilight
Nautical Twilight
Astronomical Twilight
Moon
Length of Visible Light
Length of Day
Tomorrow will be .
, % of the Moon is Illuminated

Today's Extremes

State Highs State Lows

Community

WunderPhotos

WunderBlog® & News

Nearby

Air Quality

  Air Quality AQ Index Pollutant
Not available.

Snow Depth

Station Depth Elevation

Earthquake Activity

City Distance Mag. Time & Date
Minimum magnitude displayed is 2.5.

Coastal Water Temperatures

Place Temperature

Stations

Nearby Weather Stations

Station Location Temp. Windchill Dew Point Humidity Wind Precip. Elev Updated Type
                   

Watches & Warnings

There are currently no watches in effect.